Ship Status Report: callsign BDCJ

sailwx.info

Track history (hours):
 
Tides and Currents Weather Stations Pressure Air Temp Water Temp Dewpoint Dewpoint Depression Visibility Wind Speed Wind Dir Waves Ship Positions

Oceanographic research ship ()

Last reported at 2018-Jun-19 08:17 UTC. Time now 2018-Jun-23 04:45 UTC.
Position N 22°21' E 120°18'.

Type: Ship (hazmat cat C). MMSI: 404455160.

Date/timePositionNaut miles runAvg speedWind from/ knotsBaromVisibWave heightAir tempDewpointWater temp
2018-Jun-19 08:17N 22°21' E 120°18'3 7.8
2018-Jun-19 07:52N 22°23' E 120°16'3 7.9
2018-Jun-19 07:29N 22°26' E 120°14'4 8.9
2018-Jun-19 07:00N 22°30' E 120°12'5 9.0
2018-Jun-19 06:29N 22°34' E 120°10'4 7.6
2018-Jun-19 06:00N 22°38' E 120°10'5 9.1
2018-Jun-19 05:30N 22°37' E 120°15'2 0.1
2018-Jun-18 09:18N 22°36' E 120°17'0 0.0
2018-Jun-18 07:16N 22°36' E 120°17'0 0.0
2018-Jun-18 06:59N 22°36' E 120°17'0 0.0
2018-Jun-18 06:18N 22°36' E 120°17'0 0.0
2018-Jun-18 05:57N 22°36' E 120°17'0 0.0
2018-Jun-18 05:29N 22°36' E 120°17'0 0.0
2018-Jun-18 05:00N 22°36' E 120°17'0 0.0
2018-Jun-18 04:31N 22°36' E 120°17'0 0.0
2018-Jun-18 04:00N 22°36' E 120°17'0 0.0
2018-Jun-17 20:41N 22°36' E 120°17'0 0.0
2018-Jun-17 20:30N 22°36' E 120°17'0 0.0
2018-Jun-17 18:40N 22°36' E 120°17'0 0.0
2018-Jun-17 18:30N 22°36' E 120°17'0 0.0
2018-Jun-17 17:23N 22°36' E 120°17'0 0.0
2018-Jun-17 17:00N 22°36' E 120°17'0 0.0
2018-Jun-17 07:41N 22°36' E 120°17'0 0.0
2018-Jun-17 07:30N 22°36' E 120°17'0 0.0
2018-Jun-15 16:08N 22°36' E 120°17'0 0.0
2018-Jun-15 16:00N 22°36' E 120°17'0 0.0
2018-Jun-15 13:28N 22°36' E 120°17'0 0.0
2018-Jun-14 05:12N 22°36' E 120°17'0 0.0
2018-Jun-14 05:00N 22°36' E 120°17'0 0.0
2018-Jun-14 03:00N 22°36' E 120°17'0 0.0
2018-Jun-13 18:54N 22°36' E 120°17'0 0.0
2018-Jun-13 18:00N 22°36' E 120°17'1 1.1
2018-Jun-13 17:03N 22°37' E 120°16'1 9.4
2018-Jun-13 16:57N 22°37' E 120°15'3 6.5
2018-Jun-13 16:30N 22°35' E 120°13'  
Track history (hours):
 
Tides and Currents Weather Stations Pressure Air Temp Water Temp Dewpoint Dewpoint Depression Visibility Wind Speed Wind Dir Waves Ship Positions

Oceanographic research ship ()

Last reported at 2018-Jun-19 08:17 UTC. Time now 2018-Jun-23 04:45 UTC.
Position N 22°21' E 120°18'.

Type: Ship (hazmat cat C). MMSI: 404455160.

Date/timePositionNaut miles runAvg speedWind from/ knotsBaromVisibWave heightAir tempDewpointWater temp
2018-Jun-19 08:17N 22°21' E 120°18'3 7.8
2018-Jun-19 07:52N 22°23' E 120°16'3 7.9
2018-Jun-19 07:29N 22°26' E 120°14'4 8.9
2018-Jun-19 07:00N 22°30' E 120°12'5 9.0
2018-Jun-19 06:29N 22°34' E 120°10'4 7.6
2018-Jun-19 06:00N 22°38' E 120°10'5 9.1
2018-Jun-19 05:30N 22°37' E 120°15'2 0.1
2018-Jun-18 09:18N 22°36' E 120°17'0 0.0
2018-Jun-18 07:16N 22°36' E 120°17'0 0.0
2018-Jun-18 06:59N 22°36' E 120°17'0 0.0
2018-Jun-18 06:18N 22°36' E 120°17'0 0.0
2018-Jun-18 05:57N 22°36' E 120°17'0 0.0
2018-Jun-18 05:29N 22°36' E 120°17'0 0.0
2018-Jun-18 05:00N 22°36' E 120°17'0 0.0
2018-Jun-18 04:31N 22°36' E 120°17'0 0.0
2018-Jun-18 04:00N 22°36' E 120°17'0 0.0
2018-Jun-17 20:41N 22°36' E 120°17'0 0.0
2018-Jun-17 20:30N 22°36' E 120°17'0 0.0
2018-Jun-17 18:40N 22°36' E 120°17'0 0.0
2018-Jun-17 18:30N 22°36' E 120°17'0 0.0
2018-Jun-17 17:23N 22°36' E 120°17'0 0.0
2018-Jun-17 17:00N 22°36' E 120°17'0 0.0
2018-Jun-17 07:41N 22°36' E 120°17'0 0.0
2018-Jun-17 07:30N 22°36' E 120°17'0 0.0
2018-Jun-15 16:08N 22°36' E 120°17'0 0.0
2018-Jun-15 16:00N 22°36' E 120°17'0 0.0
2018-Jun-15 13:28N 22°36' E 120°17'0 0.0
2018-Jun-14 05:12N 22°36' E 120°17'0 0.0
2018-Jun-14 05:00N 22°36' E 120°17'0 0.0
2018-Jun-14 03:00N 22°36' E 120°17'0 0.0
2018-Jun-13 18:54N 22°36' E 120°17'0 0.0
2018-Jun-13 18:00N 22°36' E 120°17'1 1.1
2018-Jun-13 17:03N 22°37' E 120°16'1 9.4
2018-Jun-13 16:57N 22°37' E 120°15'3 6.5
2018-Jun-13 16:30N 22°35' E 120°13'  

Dump ship's entire track history